sensor_id;sensor_type;location;lat;lon;timestamp;P1;P2;P0
55043;PMS5003;54902;50.420;18.854;2024-01-30T00:00:17;7;7;5
55043;PMS5003;54902;50.420;18.854;2024-01-30T00:00:48;7;7;5
55043;PMS5003;54902;50.420;18.854;2024-01-30T00:01:19;7;7;5
55043;PMS5003;54902;50.420;18.854;2024-01-30T00:01:50;7;7;5
55043;PMS5003;54902;50.420;18.854;2024-01-30T00:02:21;7;7;5
55043;PMS5003;54902;50.420;18.854;2024-01-30T00:02:52;7;7;5
55043;PMS5003;54902;50.420;18.854;2024-01-30T00:03:23;7;7;5
55043;PMS5003;54902;50.420;18.854;2024-01-30T00:03:54;7;7;5
55043;PMS5003;54902;50.420;18.854;2024-01-30T00:04:25;12;12;7
55043;PMS5003;54902;50.420;18.854;2024-01-30T00:04:56;12;12;7
55043;PMS5003;54902;50.420;18.854;2024-01-30T00:05:27;12;12;7
55043;PMS5003;54902;50.420;18.854;2024-01-30T00:05:58;12;12;7
55043;PMS5003;54902;50.420;18.854;2024-01-30T00:06:28;12;12;7
55043;PMS5003;54902;50.420;18.854;2024-01-30T00:06:59;12;12;7
55043;PMS5003;54902;50.420;18.854;2024-01-30T00:07:30;12;12;7
55043;PMS5003;54902;50.420;18.854;2024-01-30T00:08:01;12;12;7
55043;PMS5003;54902;50.420;18.854;2024-01-30T00:08:32;12;12;7
55043;PMS5003;54902;50.420;18.854;2024-01-30T00:09:03;12;12;7
55043;PMS5003;54902;50.420;18.854;2024-01-30T00:09:35;12;12;7
55043;PMS5003;54902;50.420;18.854;2024-01-30T00:10:06;12;12;7
55043;PMS5003;54902;50.420;18.854;2024-01-30T00:10:37;2;2;1
55043;PMS5003;54902;50.420;18.854;2024-01-30T00:11:08;2;2;1
55043;PMS5003;54902;50.420;18.854;2024-01-30T00:11:39;2;2;1
55043;PMS5003;54902;50.420;18.854;2024-01-30T00:12:10;2;2;1
55043;PMS5003;54902;50.420;18.854;2024-01-30T00:12:41;2;2;1
55043;PMS5003;54902;50.420;18.854;2024-01-30T00:13:12;2;2;1
55043;PMS5003;54902;50.420;18.854;2024-01-30T00:13:46;2;2;1
55043;PMS5003;54902;50.420;18.854;2024-01-30T00:14:17;2;2;1
55043;PMS5003;54902;50.420;18.854;2024-01-30T00:14:49;1;1;0
55043;PMS5003;54902;50.420;18.854;2024-01-30T00:15:19;1;1;0
55043;PMS5003;54902;50.420;18.854;2024-01-30T00:15:50;1;1;0
55043;PMS5003;54902;50.420;18.854;2024-01-30T00:16:24;1;1;0
55043;PMS5003;54902;50.420;18.854;2024-01-30T00:16:56;1;1;0
55043;PMS5003;54902;50.420;18.854;2024-01-30T00:17:26;1;1;0
55043;PMS5003;54902;50.420;18.854;2024-01-30T00:17:57;1;1;0
55043;PMS5003;54902;50.420;18.854;2024-01-30T00:18:28;1;1;0
55043;PMS5003;54902;50.420;18.854;2024-01-30T00:18:59;1;1;0
55043;PMS5003;54902;50.420;18.854;2024-01-30T00:19:32;1;1;0
55043;PMS5003;54902;50.420;18.854;2024-01-30T00:20:03;1;1;0
55043;PMS5003;54902;50.420;18.854;2024-01-30T00:20:40;1;1;0
55043;PMS5003;54902;50.420;18.854;2024-01-30T00:21:11;1;1;0
55043;PMS5003;54902;50.420;18.854;2024-01-30T00:21:42;1;1;0
55043;PMS5003;54902;50.420;18.854;2024-01-30T00:22:13;1;1;0
55043;PMS5003;54902;50.420;18.854;2024-01-30T00:22:44;1;1;0
55043;PMS5003;54902;50.420;18.854;2024-01-30T00:23:15;1;1;0
55043;PMS5003;54902;50.420;18.854;2024-01-30T00:23:46;1;1;0
55043;PMS5003;54902;50.420;18.854;2024-01-30T00:24:17;1;1;0
55043;PMS5003;54902;50.420;18.854;2024-01-30T00:24:48;1;1;0
55043;PMS5003;54902;50.420;18.854;2024-01-30T00:25:19;1;1;0
55043;PMS5003;54902;50.420;18.854;2024-01-30T00:25:50;1;1;0
55043;PMS5003;54902;50.420;18.854;2024-01-30T00:26:21;1;1;0
55043;PMS5003;54902;50.420;18.854;2024-01-30T00:26:52;1;1;0
55043;PMS5003;54902;50.420;18.854;2024-01-30T00:27:23;1;1;0
55043;PMS5003;54902;50.420;18.854;2024-01-30T00:27:53;1;1;0
55043;PMS5003;54902;50.420;18.854;2024-01-30T00:28:24;1;1;0
55043;PMS5003;54902;50.420;18.854;2024-01-30T00:28:55;1;1;0
55043;PMS5003;54902;50.420;18.854;2024-01-30T00:29:26;1;1;0
55043;PMS5003;54902;50.420;18.854;2024-01-30T00:30:03;1;1;0
55043;PMS5003;54902;50.420;18.854;2024-01-30T00:30:35;7;7;5
55043;PMS5003;54902;50.420;18.854;2024-01-30T00:31:06;7;7;5
55043;PMS5003;54902;50.420;18.854;2024-01-30T00:31:37;7;7;5
55043;PMS5003;54902;50.420;18.854;2024-01-30T00:32:08;7;7;5
55043;PMS5003;54902;50.420;18.854;2024-01-30T00:32:39;7;7;5
55043;PMS5003;54902;50.420;18.854;2024-01-30T00:33:10;7;7;5
55043;PMS5003;54902;50.420;18.854;2024-01-30T00:33:41;7;7;5
55043;PMS5003;54902;50.420;18.854;2024-01-30T00:34:12;7;7;5
55043;PMS5003;54902;50.420;18.854;2024-01-30T00:34:43;7;7;5
55043;PMS5003;54902;50.420;18.854;2024-01-30T00:35:14;7;7;5
55043;PMS5003;54902;50.420;18.854;2024-01-30T00:35:45;12;12;9
55043;PMS5003;54902;50.420;18.854;2024-01-30T00:36:16;12;12;9
55043;PMS5003;54902;50.420;18.854;2024-01-30T00:36:47;12;12;9
55043;PMS5003;54902;50.420;18.854;2024-01-30T00:37:18;12;12;9
55043;PMS5003;54902;50.420;18.854;2024-01-30T00:37:49;12;12;9
55043;PMS5003;54902;50.420;18.854;2024-01-30T00:38:20;12;12;9
55043;PMS5003;54902;50.420;18.854;2024-01-30T00:38:51;12;12;9
55043;PMS5003;54902;50.420;18.854;2024-01-30T00:39:22;12;12;9
55043;PMS5003;54902;50.420;18.854;2024-01-30T00:39:53;12;12;9
55043;PMS5003;54902;50.420;18.854;2024-01-30T00:40:24;12;12;9
55043;PMS5003;54902;50.420;18.854;2024-01-30T00:40:55;12;12;9
55043;PMS5003;54902;50.420;18.854;2024-01-30T00:41:26;12;12;9
55043;PMS5003;54902;50.420;18.854;2024-01-30T00:41:57;12;12;9
55043;PMS5003;54902;50.420;18.854;2024-01-30T00:42:28;12;12;9
55043;PMS5003;54902;50.420;18.854;2024-01-30T00:42:59;12;12;9
55043;PMS5003;54902;50.420;18.854;2024-01-30T00:43:30;12;12;9
55043;PMS5003;54902;50.420;18.854;2024-01-30T00:44:01;12;12;9
55043;PMS5003;54902;50.420;18.854;2024-01-30T00:44:34;8;8;6
55043;PMS5003;54902;50.420;18.854;2024-01-30T00:45:12;8;8;6
55043;PMS5003;54902;50.420;18.854;2024-01-30T00:45:44;8;8;6
55043;PMS5003;54902;50.420;18.854;2024-01-30T00:46:15;0;0;0
55043;PMS5003;54902;50.420;18.854;2024-01-30T00:46:46;0;0;0
55043;PMS5003;54902;50.420;18.854;2024-01-30T00:47:17;0;0;0
55043;PMS5003;54902;50.420;18.854;2024-01-30T00:47:48;2;2;2
55043;PMS5003;54902;50.420;18.854;2024-01-30T00:48:19;2;2;2
55043;PMS5003;54902;50.420;18.854;2024-01-30T00:48:50;2;2;2
55043;PMS5003;54902;50.420;18.854;2024-01-30T00:49:21;2;2;2
55043;PMS5003;54902;50.420;18.854;2024-01-30T00:49:52;2;2;2
55043;PMS5003;54902;50.420;18.854;2024-01-30T00:50:23;2;2;2
55043;PMS5003;54902;50.420;18.854;2024-01-30T00:50:54;2;2;2
55043;PMS5003;54902;50.420;18.854;2024-01-30T00:51:25;2;2;1
55043;PMS5003;54902;50.420;18.854;2024-01-30T00:51:55;2;2;1
55043;PMS5003;54902;50.420;18.854;2024-01-30T00:52:27;2;2;1
55043;PMS5003;54902;50.420;18.854;2024-01-30T00:52:57;2;2;1
55043;PMS5003;54902;50.420;18.854;2024-01-30T00:53:28;2;2;1
55043;PMS5003;54902;50.420;18.854;2024-01-30T00:53:59;2;2;1
55043;PMS5003;54902;50.420;18.854;2024-01-30T00:54:30;2;2;1
55043;PMS5003;54902;50.420;18.854;2024-01-30T00:55:01;2;2;1
55043;PMS5003;54902;50.420;18.854;2024-01-30T00:55:33;2;2;1
55043;PMS5003;54902;50.420;18.854;2024-01-30T00:56:04;2;2;1
55043;PMS5003;54902;50.420;18.854;2024-01-30T00:56:35;3;3;1
55043;PMS5003;54902;50.420;18.854;2024-01-30T00:57:06;3;3;1
55043;PMS5003;54902;50.420;18.854;2024-01-30T00:57:37;3;3;1
55043;PMS5003;54902;50.420;18.854;2024-01-30T00:58:08;3;3;1
55043;PMS5003;54902;50.420;18.854;2024-01-30T00:58:39;3;3;1
55043;PMS5003;54902;50.420;18.854;2024-01-30T00:59:10;3;3;1
55043;PMS5003;54902;50.420;18.854;2024-01-30T00:59:42;3;3;1
55043;PMS5003;54902;50.420;18.854;2024-01-30T01:00:13;3;3;1
55043;PMS5003;54902;50.420;18.854;2024-01-30T01:00:47;2;2;1
55043;PMS5003;54902;50.420;18.854;2024-01-30T01:01:18;2;2;1
55043;PMS5003;54902;50.420;18.854;2024-01-30T01:01:49;1;1;1
55043;PMS5003;54902;50.420;18.854;2024-01-30T01:02:20;1;1;1
55043;PMS5003;54902;50.420;18.854;2024-01-30T01:02:51;1;1;1
55043;PMS5003;54902;50.420;18.854;2024-01-30T01:03:22;1;1;1
55043;PMS5003;54902;50.420;18.854;2024-01-30T01:03:53;1;1;1
55043;PMS5003;54902;50.420;18.854;2024-01-30T01:04:23;1;1;1
55043;PMS5003;54902;50.420;18.854;2024-01-30T01:04:54;1;1;1
55043;PMS5003;54902;50.420;18.854;2024-01-30T01:05:25;1;1;1
55043;PMS5003;54902;50.420;18.854;2024-01-30T01:05:57;1;1;1
55043;PMS5003;54902;50.420;18.854;2024-01-30T01:06:28;1;1;1
55043;PMS5003;54902;50.420;18.854;2024-01-30T01:06:59;1;1;1
55043;PMS5003;54902;50.420;18.854;2024-01-30T01:07:31;1;1;1
55043;PMS5003;54902;50.420;18.854;2024-01-30T01:08:02;1;1;1
55043;PMS5003;54902;50.420;18.854;2024-01-30T01:08:33;1;1;1
55043;PMS5003;54902;50.420;18.854;2024-01-30T01:09:03;1;1;1
55043;PMS5003;54902;50.420;18.854;2024-01-30T01:09:34;1;1;1
55043;PMS5003;54902;50.420;18.854;2024-01-30T01:10:06;1;1;1
55043;PMS5003;54902;50.420;18.854;2024-01-30T01:10:37;1;1;1
55043;PMS5003;54902;50.420;18.854;2024-01-30T01:11:08;1;1;1
55043;PMS5003;54902;50.420;18.854;2024-01-30T01:11:39;1;1;1
55043;PMS5003;54902;50.420;18.854;2024-01-30T01:12:10;1;1;1
55043;PMS5003;54902;50.420;18.854;2024-01-30T01:12:41;1;1;1
55043;PMS5003;54902;50.420;18.854;2024-01-30T01:13:12;1;1;1
55043;PMS5003;54902;50.420;18.854;2024-01-30T01:13:43;1;1;1
55043;PMS5003;54902;50.420;18.854;2024-01-30T01:14:14;1;1;1
55043;PMS5003;54902;50.420;18.854;2024-01-30T01:14:45;1;1;1
55043;PMS5003;54902;50.420;18.854;2024-01-30T01:15:16;1;1;1
55043;PMS5003;54902;50.420;18.854;2024-01-30T01:15:47;1;1;1
55043;PMS5003;54902;50.420;18.854;2024-01-30T01:16:18;1;1;1
55043;PMS5003;54902;50.420;18.854;2024-01-30T01:16:49;1;1;1
55043;PMS5003;54902;50.420;18.854;2024-01-30T01:17:20;1;1;1
55043;PMS5003;54902;50.420;18.854;2024-01-30T01:17:51;1;1;1
55043;PMS5003;54902;50.420;18.854;2024-01-30T01:18:21;1;1;1
55043;PMS5003;54902;50.420;18.854;2024-01-30T01:18:52;1;1;1
55043;PMS5003;54902;50.420;18.854;2024-01-30T01:19:23;1;1;1
55043;PMS5003;54902;50.420;18.854;2024-01-30T01:19:54;1;1;1
55043;PMS5003;54902;50.420;18.854;2024-01-30T01:20:25;1;1;1
55043;PMS5003;54902;50.420;18.854;2024-01-30T01:20:56;1;1;1
55043;PMS5003;54902;50.420;18.854;2024-01-30T01:21:27;1;1;1
55043;PMS5003;54902;50.420;18.854;2024-01-30T01:21:58;1;1;1
55043;PMS5003;54902;50.420;18.854;2024-01-30T01:22:29;2;2;1
55043;PMS5003;54902;50.420;18.854;2024-01-30T01:23:00;2;2;1
55043;PMS5003;54902;50.420;18.854;2024-01-30T01:23:31;2;2;1
55043;PMS5003;54902;50.420;18.854;2024-01-30T01:24:02;2;2;1
55043;PMS5003;54902;50.420;18.854;2024-01-30T01:24:33;2;2;1
55043;PMS5003;54902;50.420;18.854;2024-01-30T01:25:04;2;2;1
55043;PMS5003;54902;50.420;18.854;2024-01-30T01:25:40;2;2;1
55043;PMS5003;54902;50.420;18.854;2024-01-30T01:26:11;2;2;1
55043;PMS5003;54902;50.420;18.854;2024-01-30T01:26:42;2;2;1
55043;PMS5003;54902;50.420;18.854;2024-01-30T01:27:13;2;2;1
55043;PMS5003;54902;50.420;18.854;2024-01-30T01:27:44;1;1;0
55043;PMS5003;54902;50.420;18.854;2024-01-30T01:28:22;1;1;0
55043;PMS5003;54902;50.420;18.854;2024-01-30T01:28:53;1;1;0
55043;PMS5003;54902;50.420;18.854;2024-01-30T01:29:24;1;1;0
55043;PMS5003;54902;50.420;18.854;2024-01-30T01:29:59;1;1;0
55043;PMS5003;54902;50.420;18.854;2024-01-30T01:30:30;1;1;0
55043;PMS5003;54902;50.420;18.854;2024-01-30T01:31:01;1;1;0
55043;PMS5003;54902;50.420;18.854;2024-01-30T01:31:36;1;1;0
55043;PMS5003;54902;50.420;18.854;2024-01-30T01:32:13;3;3;1
55043;PMS5003;54902;50.420;18.854;2024-01-30T01:32:44;3;3;1
55043;PMS5003;54902;50.420;18.854;2024-01-30T01:33:26;3;3;2
55043;PMS5003;54902;50.420;18.854;2024-01-30T01:33:57;3;3;2
55043;PMS5003;54902;50.420;18.854;2024-01-30T01:34:28;3;3;2
55043;PMS5003;54902;50.420;18.854;2024-01-30T01:34:59;3;3;2
55043;PMS5003;54902;50.420;18.854;2024-01-30T01:35:30;3;3;2
55043;PMS5003;54902;50.420;18.854;2024-01-30T01:36:01;3;3;2
55043;PMS5003;54902;50.420;18.854;2024-01-30T01:36:32;3;3;2
55043;PMS5003;54902;50.420;18.854;2024-01-30T01:37:03;3;3;2
55043;PMS5003;54902;50.420;18.854;2024-01-30T01:37:34;3;3;2
55043;PMS5003;54902;50.420;18.854;2024-01-30T01:38:05;3;3;2
55043;PMS5003;54902;50.420;18.854;2024-01-30T01:38:36;4;4;3
55043;PMS5003;54902;50.420;18.854;2024-01-30T01:39:07;4;4;3
55043;PMS5003;54902;50.420;18.854;2024-01-30T01:39:38;4;4;3
55043;PMS5003;54902;50.420;18.854;2024-01-30T01:40:09;4;4;3
55043;PMS5003;54902;50.420;18.854;2024-01-30T01:40:40;4;4;3
55043;PMS5003;54902;50.420;18.854;2024-01-30T01:41:11;4;4;3
55043;PMS5003;54902;50.420;18.854;2024-01-30T01:41:42;4;4;3
55043;PMS5003;54902;50.420;18.854;2024-01-30T01:42:13;4;4;3
55043;PMS5003;54902;50.420;18.854;2024-01-30T01:42:44;4;4;3
55043;PMS5003;54902;50.420;18.854;2024-01-30T01:43:15;4;4;3
55043;PMS5003;54902;50.420;18.854;2024-01-30T01:43:46;8;7;6
55043;PMS5003;54902;50.420;18.854;2024-01-30T01:44:17;8;7;6
55043;PMS5003;54902;50.420;18.854;2024-01-30T01:44:49;8;7;6
55043;PMS5003;54902;50.420;18.854;2024-01-30T01:45:21;8;7;6
55043;PMS5003;54902;50.420;18.854;2024-01-30T01:45:52;8;7;6
55043;PMS5003;54902;50.420;18.854;2024-01-30T01:46:23;8;7;6
55043;PMS5003;54902;50.420;18.854;2024-01-30T01:46:56;8;7;6
55043;PMS5003;54902;50.420;18.854;2024-01-30T01:47:28;8;7;6
55043;PMS5003;54902;50.420;18.854;2024-01-30T01:47:59;8;7;6
55043;PMS5003;54902;50.420;18.854;2024-01-30T01:48:30;8;7;6
55043;PMS5003;54902;50.420;18.854;2024-01-30T01:49:02;11;11;7
55043;PMS5003;54902;50.420;18.854;2024-01-30T01:49:34;11;11;7
55043;PMS5003;54902;50.420;18.854;2024-01-30T01:50:06;11;11;7
55043;PMS5003;54902;50.420;18.854;2024-01-30T01:50:38;11;11;7
55043;PMS5003;54902;50.420;18.854;2024-01-30T01:51:09;11;11;7
55043;PMS5003;54902;50.420;18.854;2024-01-30T01:51:41;11;11;7
55043;PMS5003;54902;50.420;18.854;2024-01-30T01:52:15;11;11;7
55043;PMS5003;54902;50.420;18.854;2024-01-30T01:52:50;11;11;7
55043;PMS5003;54902;50.420;18.854;2024-01-30T01:53:21;11;11;7
55043;PMS5003;54902;50.420;18.854;2024-01-30T01:53:53;11;11;7
55043;PMS5003;54902;50.420;18.854;2024-01-30T01:54:25;18;18;12
55043;PMS5003;54902;50.420;18.854;2024-01-30T01:54:58;18;18;12
55043;PMS5003;54902;50.420;18.854;2024-01-30T01:55:29;18;18;12
55043;PMS5003;54902;50.420;18.854;2024-01-30T01:56:03;18;18;12
55043;PMS5003;54902;50.420;18.854;2024-01-30T01:56:35;18;18;12
55043;PMS5003;54902;50.420;18.854;2024-01-30T01:57:08;18;18;12
55043;PMS5003;54902;50.420;18.854;2024-01-30T01:57:39;18;18;12
55043;PMS5003;54902;50.420;18.854;2024-01-30T01:58:11;18;18;12
55043;PMS5003;54902;50.420;18.854;2024-01-30T01:58:44;18;18;12
55043;PMS5003;54902;50.420;18.854;2024-01-30T01:59:16;18;18;12
55043;PMS5003;54902;50.420;18.854;2024-01-30T01:59:48;18;18;12
55043;PMS5003;54902;50.420;18.854;2024-01-30T02:00:20;18;18;12
55043;PMS5003;54902;50.420;18.854;2024-01-30T02:00:51;18;18;12
55043;PMS5003;54902;50.420;18.854;2024-01-30T02:01:22;18;18;12
55043;PMS5003;54902;50.420;18.854;2024-01-30T02:01:55;18;18;12
55043;PMS5003;54902;50.420;18.854;2024-01-30T02:02:26;18;18;12
55043;PMS5003;54902;50.420;18.854;2024-01-30T02:03:01;18;18;12
55043;PMS5003;54902;50.420;18.854;2024-01-30T02:03:34;18;18;12
55043;PMS5003;54902;50.420;18.854;2024-01-30T02:04:06;18;18;12
55043;PMS5003;54902;50.420;18.854;2024-01-30T02:04:37;18;18;12
55043;PMS5003;54902;50.420;18.854;2024-01-30T02:05:09;18;18;12
55043;PMS5003;54902;50.420;18.854;2024-01-30T02:05:40;18;18;12
55043;PMS5003;54902;50.420;18.854;2024-01-30T02:06:16;13;13;9
55043;PMS5003;54902;50.420;18.854;2024-01-30T02:06:47;13;13;9
55043;PMS5003;54902;50.420;18.854;2024-01-30T02:07:19;13;13;9
55043;PMS5003;54902;50.420;18.854;2024-01-30T02:07:51;13;13;9
55043;PMS5003;54902;50.420;18.854;2024-01-30T02:08:22;13;13;9
55043;PMS5003;54902;50.420;18.854;2024-01-30T02:08:54;13;13;9
55043;PMS5003;54902;50.420;18.854;2024-01-30T02:09:25;13;13;9
55043;PMS5003;54902;50.420;18.854;2024-01-30T02:09:56;13;13;9
55043;PMS5003;54902;50.420;18.854;2024-01-30T02:10:27;20;20;14
55043;PMS5003;54902;50.420;18.854;2024-01-30T02:10:58;20;20;14
55043;PMS5003;54902;50.420;18.854;2024-01-30T02:11:30;20;20;14
55043;PMS5003;54902;50.420;18.854;2024-01-30T02:12:02;10;10;6
55043;PMS5003;54902;50.420;18.854;2024-01-30T02:12:33;10;10;6
55043;PMS5003;54902;50.420;18.854;2024-01-30T02:13:04;10;10;6
55043;PMS5003;54902;50.420;18.854;2024-01-30T02:13:35;10;10;6
55043;PMS5003;54902;50.420;18.854;2024-01-30T02:14:06;10;10;6
55043;PMS5003;54902;50.420;18.854;2024-01-30T02:15:18;10;10;6
55043;PMS5003;54902;50.420;18.854;2024-01-30T02:15:52;11;11;6
55043;PMS5003;54902;50.420;18.854;2024-01-30T02:16:22;11;11;6
55043;PMS5003;54902;50.420;18.854;2024-01-30T02:16:53;11;11;6
55043;PMS5003;54902;50.420;18.854;2024-01-30T02:17:24;10;10;7
55043;PMS5003;54902;50.420;18.854;2024-01-30T02:17:56;10;10;7
55043;PMS5003;54902;50.420;18.854;2024-01-30T02:18:27;10;10;7
55043;PMS5003;54902;50.420;18.854;2024-01-30T02:18:58;10;10;7
55043;PMS5003;54902;50.420;18.854;2024-01-30T02:19:29;10;10;7
55043;PMS5003;54902;50.420;18.854;2024-01-30T02:19:59;10;10;7
55043;PMS5003;54902;50.420;18.854;2024-01-30T02:20:30;10;10;7
55043;PMS5003;54902;50.420;18.854;2024-01-30T02:21:04;16;16;12
55043;PMS5003;54902;50.420;18.854;2024-01-30T02:21:35;16;16;12
55043;PMS5003;54902;50.420;18.854;2024-01-30T02:22:06;16;16;12
55043;PMS5003;54902;50.420;18.854;2024-01-30T02:22:39;16;16;12
55043;PMS5003;54902;50.420;18.854;2024-01-30T02:23:11;16;16;12
55043;PMS5003;54902;50.420;18.854;2024-01-30T02:23:43;14;14;9
55043;PMS5003;54902;50.420;18.854;2024-01-30T02:24:15;14;14;9
55043;PMS5003;54902;50.420;18.854;2024-01-30T02:24:46;14;14;9
55043;PMS5003;54902;50.420;18.854;2024-01-30T02:25:17;14;14;9
55043;PMS5003;54902;50.420;18.854;2024-01-30T02:25:48;14;14;9
55043;PMS5003;54902;50.420;18.854;2024-01-30T02:26:18;14;13;7
55043;PMS5003;54902;50.420;18.854;2024-01-30T02:26:49;14;13;7
55043;PMS5003;54902;50.420;18.854;2024-01-30T02:27:20;14;13;7
55043;PMS5003;54902;50.420;18.854;2024-01-30T02:27:51;14;13;7
55043;PMS5003;54902;50.420;18.854;2024-01-30T02:28:22;14;13;7
55043;PMS5003;54902;50.420;18.854;2024-01-30T02:28:53;14;13;7
55043;PMS5003;54902;50.420;18.854;2024-01-30T02:29:24;14;13;7
55043;PMS5003;54902;50.420;18.854;2024-01-30T02:29:55;14;13;7
55043;PMS5003;54902;50.420;18.854;2024-01-30T02:30:26;14;13;7
55043;PMS5003;54902;50.420;18.854;2024-01-30T02:30:57;14;13;7
55043;PMS5003;54902;50.420;18.854;2024-01-30T02:31:27;18;16;9
55043;PMS5003;54902;50.420;18.854;2024-01-30T02:31:58;18;16;9
55043;PMS5003;54902;50.420;18.854;2024-01-30T02:32:29;18;16;9
55043;PMS5003;54902;50.420;18.854;2024-01-30T02:33:00;18;16;9
55043;PMS5003;54902;50.420;18.854;2024-01-30T02:33:31;18;16;9
55043;PMS5003;54902;50.420;18.854;2024-01-30T02:34:02;18;16;9
55043;PMS5003;54902;50.420;18.854;2024-01-30T02:34:33;18;16;9
55043;PMS5003;54902;50.420;18.854;2024-01-30T02:35:04;18;16;9
55043;PMS5003;54902;50.420;18.854;2024-01-30T02:35:35;18;16;9
55043;PMS5003;54902;50.420;18.854;2024-01-30T02:36:06;18;16;9
55043;PMS5003;54902;50.420;18.854;2024-01-30T02:36:37;18;16;9
55043;PMS5003;54902;50.420;18.854;2024-01-30T02:37:08;18;16;9
55043;PMS5003;54902;50.420;18.854;2024-01-30T02:37:39;18;16;9
55043;PMS5003;54902;50.420;18.854;2024-01-30T02:38:10;18;16;9
55043;PMS5003;54902;50.420;18.854;2024-01-30T02:38:41;18;16;9
55043;PMS5003;54902;50.420;18.854;2024-01-30T02:39:12;18;16;9
55043;PMS5003;54902;50.420;18.854;2024-01-30T02:39:43;18;16;9
55043;PMS5003;54902;50.420;18.854;2024-01-30T02:40:14;18;16;9
55043;PMS5003;54902;50.420;18.854;2024-01-30T02:40:45;18;16;9
55043;PMS5003;54902;50.420;18.854;2024-01-30T02:41:16;18;16;9
55043;PMS5003;54902;50.420;18.854;2024-01-30T02:41:47;18;16;9
55043;PMS5003;54902;50.420;18.854;2024-01-30T02:42:17;10;9;6
55043;PMS5003;54902;50.420;18.854;2024-01-30T02:42:48;10;9;6
55043;PMS5003;54902;50.420;18.854;2024-01-30T02:43:19;10;9;6
55043;PMS5003;54902;50.420;18.854;2024-01-30T02:43:50;10;9;6
55043;PMS5003;54902;50.420;18.854;2024-01-30T02:44:21;10;9;6
55043;PMS5003;54902;50.420;18.854;2024-01-30T02:44:52;10;9;6
55043;PMS5003;54902;50.420;18.854;2024-01-30T02:45:23;10;9;6
55043;PMS5003;54902;50.420;18.854;2024-01-30T02:45:54;10;9;6
55043;PMS5003;54902;50.420;18.854;2024-01-30T02:46:25;10;9;6
55043;PMS5003;54902;50.420;18.854;2024-01-30T02:46:56;18;18;13
55043;PMS5003;54902;50.420;18.854;2024-01-30T02:47:26;18;18;13
55043;PMS5003;54902;50.420;18.854;2024-01-30T02:47:57;18;18;13
55043;PMS5003;54902;50.420;18.854;2024-01-30T02:48:28;18;18;13
55043;PMS5003;54902;50.420;18.854;2024-01-30T02:48:59;18;18;13
55043;PMS5003;54902;50.420;18.854;2024-01-30T02:49:30;18;18;13
55043;PMS5003;54902;50.420;18.854;2024-01-30T02:50:01;18;18;13
55043;PMS5003;54902;50.420;18.854;2024-01-30T02:50:32;18;18;13
55043;PMS5003;54902;50.420;18.854;2024-01-30T02:51:04;18;18;13
55043;PMS5003;54902;50.420;18.854;2024-01-30T02:51:34;18;18;13
55043;PMS5003;54902;50.420;18.854;2024-01-30T02:52:05;18;18;13
55043;PMS5003;54902;50.420;18.854;2024-01-30T02:52:36;18;18;13
55043;PMS5003;54902;50.420;18.854;2024-01-30T02:53:07;9;9;7
55043;PMS5003;54902;50.420;18.854;2024-01-30T02:53:38;9;9;7
55043;PMS5003;54902;50.420;18.854;2024-01-30T02:54:09;9;9;7
55043;PMS5003;54902;50.420;18.854;2024-01-30T02:54:40;9;9;7
55043;PMS5003;54902;50.420;18.854;2024-01-30T02:55:11;9;9;7
55043;PMS5003;54902;50.420;18.854;2024-01-30T02:55:42;9;9;7
55043;PMS5003;54902;50.420;18.854;2024-01-30T02:56:13;9;9;7
55043;PMS5003;54902;50.420;18.854;2024-01-30T02:56:44;9;9;7
55043;PMS5003;54902;50.420;18.854;2024-01-30T02:57:15;14;14;9
55043;PMS5003;54902;50.420;18.854;2024-01-30T02:57:46;14;14;9
55043;PMS5003;54902;50.420;18.854;2024-01-30T02:58:17;14;14;9
55043;PMS5003;54902;50.420;18.854;2024-01-30T02:58:48;14;14;9
55043;PMS5003;54902;50.420;18.854;2024-01-30T02:59:19;14;14;9
55043;PMS5003;54902;50.420;18.854;2024-01-30T02:59:49;14;14;9
55043;PMS5003;54902;50.420;18.854;2024-01-30T03:00:20;14;14;9
55043;PMS5003;54902;50.420;18.854;2024-01-30T03:00:52;14;14;9
55043;PMS5003;54902;50.420;18.854;2024-01-30T03:01:23;14;14;9
55043;PMS5003;54902;50.420;18.854;2024-01-30T03:01:54;14;14;9
55043;PMS5003;54902;50.420;18.854;2024-01-30T03:02:25;15;15;10
55043;PMS5003;54902;50.420;18.854;2024-01-30T03:02:56;15;15;10
55043;PMS5003;54902;50.420;18.854;2024-01-30T03:03:27;15;15;10
55043;PMS5003;54902;50.420;18.854;2024-01-30T03:03:58;15;15;10
55043;PMS5003;54902;50.420;18.854;2024-01-30T03:04:29;15;15;10
55043;PMS5003;54902;50.420;18.854;2024-01-30T03:05:00;15;15;10
55043;PMS5003;54902;50.420;18.854;2024-01-30T03:05:31;15;15;10
55043;PMS5003;54902;50.420;18.854;2024-01-30T03:06:02;15;15;10
55043;PMS5003;54902;50.420;18.854;2024-01-30T03:06:33;15;15;10
55043;PMS5003;54902;50.420;18.854;2024-01-30T03:07:04;15;15;10
55043;PMS5003;54902;50.420;18.854;2024-01-30T03:07:35;15;15;10
55043;PMS5003;54902;50.420;18.854;2024-01-30T03:08:06;15;15;10
55043;PMS5003;54902;50.420;18.854;2024-01-30T03:08:37;15;15;10
55043;PMS5003;54902;50.420;18.854;2024-01-30T03:09:08;15;15;10
55043;PMS5003;54902;50.420;18.854;2024-01-30T03:09:41;15;15;10
55043;PMS5003;54902;50.420;18.854;2024-01-30T03:10:14;15;15;10
55043;PMS5003;54902;50.420;18.854;2024-01-30T03:10:45;15;15;10
55043;PMS5003;54902;50.420;18.854;2024-01-30T03:11:16;15;15;10
55043;PMS5003;54902;50.420;18.854;2024-01-30T03:11:47;15;15;10
55043;PMS5003;54902;50.420;18.854;2024-01-30T03:12:18;15;15;10
55043;PMS5003;54902;50.420;18.854;2024-01-30T03:12:48;13;13;9
55043;PMS5003;54902;50.420;18.854;2024-01-30T03:13:19;13;13;9
55043;PMS5003;54902;50.420;18.854;2024-01-30T03:13:55;13;13;9
55043;PMS5003;54902;50.420;18.854;2024-01-30T03:14:26;13;13;9
55043;PMS5003;54902;50.420;18.854;2024-01-30T03:14:57;13;13;9
55043;PMS5003;54902;50.420;18.854;2024-01-30T03:15:28;13;13;9
55043;PMS5003;54902;50.420;18.854;2024-01-30T03:15:59;13;13;9
55043;PMS5003;54902;50.420;18.854;2024-01-30T03:16:29;13;13;9
55043;PMS5003;54902;50.420;18.854;2024-01-30T03:17:00;13;13;9
55043;PMS5003;54902;50.420;18.854;2024-01-30T03:17:32;13;13;9
55043;PMS5003;54902;50.420;18.854;2024-01-30T03:18:03;24;24;15
55043;PMS5003;54902;50.420;18.854;2024-01-30T03:18:35;24;24;15
55043;PMS5003;54902;50.420;18.854;2024-01-30T03:19:06;24;24;15
55043;PMS5003;54902;50.420;18.854;2024-01-30T03:19:40;24;24;15
55043;PMS5003;54902;50.420;18.854;2024-01-30T03:20:11;24;24;15
55043;PMS5003;54902;50.420;18.854;2024-01-30T03:20:42;24;24;15
55043;PMS5003;54902;50.420;18.854;2024-01-30T03:21:13;24;24;15
55043;PMS5003;54902;50.420;18.854;2024-01-30T03:21:44;24;24;15
55043;PMS5003;54902;50.420;18.854;2024-01-30T03:22:18;24;24;15
55043;PMS5003;54902;50.420;18.854;2024-01-30T03:22:49;24;24;15
55043;PMS5003;54902;50.420;18.854;2024-01-30T03:23:20;24;24;15
55043;PMS5003;54902;50.420;18.854;2024-01-30T03:23:51;24;24;15
55043;PMS5003;54902;50.420;18.854;2024-01-30T03:24:22;24;24;15
55043;PMS5003;54902;50.420;18.854;2024-01-30T03:24:53;24;24;15